createdAt,value
2023-03-29T00:00:35.919Z,6.75
2023-03-29T00:03:05.362Z,6.75
2023-03-29T00:05:36.782Z,6.77
2023-03-29T00:08:04.251Z,6.73
2023-03-29T00:10:33.777Z,6.66
2023-03-29T00:13:03.152Z,6.57
2023-03-29T00:15:39.822Z,6.56
2023-03-29T00:18:06.439Z,6.55
2023-03-29T00:20:37.522Z,6.49
2023-03-29T00:23:09.190Z,6.48
2023-03-29T00:25:37.840Z,6.47
2023-03-29T00:28:06.656Z,6.38
2023-03-29T00:30:38.463Z,6.39
2023-03-29T00:33:05.072Z,6.32
2023-03-29T00:35:31.701Z,6.31
2023-03-29T00:37:58.306Z,6.35
2023-03-29T00:40:27.080Z,6.32
2023-03-29T00:42:55.723Z,6.38
2023-03-29T00:45:27.113Z,6.40
2023-03-29T00:48:02.621Z,6.43
2023-03-29T00:50:37.981Z,6.45
2023-03-29T00:53:12.468Z,6.47
2023-03-29T00:55:48.001Z,6.48
2023-03-29T00:58:23.435Z,6.48
2023-03-29T01:01:02.171Z,6.35
2023-03-29T01:03:38.001Z,6.41
2023-03-29T01:06:10.656Z,6.43
2023-03-29T01:08:45.301Z,6.43
2023-03-29T01:11:14.772Z,6.46
2023-03-29T01:13:49.118Z,6.44
2023-03-29T01:16:19.264Z,6.45
2023-03-29T01:18:47.057Z,6.43
2023-03-29T01:21:29.340Z,6.43
2023-03-29T01:24:24.944Z,6.24
2023-03-29T01:27:22.742Z,6.32
2023-03-29T01:29:57.273Z,6.37
2023-03-29T01:32:35.362Z,6.42
2023-03-29T01:35:11.769Z,6.39
2023-03-29T01:37:49.807Z,6.20
2023-03-29T01:40:16.605Z,6.29
2023-03-29T01:43:12.376Z,6.33
2023-03-29T01:45:49.199Z,6.35
2023-03-29T01:48:30.306Z,6.39
2023-03-29T01:51:04.620Z,6.40
2023-03-29T01:53:41.212Z,6.41
2023-03-29T01:56:12.543Z,6.42
2023-03-29T01:58:45.259Z,6.43
2023-03-29T02:01:18.628Z,6.43
2023-03-29T02:03:54.661Z,6.44
2023-03-29T02:06:24.463Z,6.44
2023-03-29T02:08:53.104Z,6.46
2023-03-29T02:11:23.328Z,6.46
2023-03-29T02:13:49.837Z,6.49
2023-03-29T02:16:19.087Z,6.48
2023-03-29T02:18:53.151Z,6.50
2023-03-29T02:21:32.770Z,6.49
2023-03-29T02:24:06.516Z,6.49
2023-03-29T02:26:36.172Z,6.49
2023-03-29T02:29:03.396Z,6.50
2023-03-29T02:31:45.350Z,6.50
2023-03-29T02:34:28.835Z,6.50
2023-03-29T02:37:03.890Z,6.51
2023-03-29T02:39:37.314Z,6.51
2023-03-29T02:42:05.316Z,6.52
2023-03-29T02:44:37.934Z,6.53
2023-03-29T02:47:12.352Z,6.52
2023-03-29T02:49:39.108Z,6.53
2023-03-29T02:52:12.628Z,6.54
2023-03-29T02:54:43.385Z,6.53
2023-03-29T02:57:10.686Z,6.53
2023-03-29T02:59:38.651Z,6.54
2023-03-29T03:02:07.471Z,6.55
2023-03-29T03:04:35.639Z,6.57
2023-03-29T03:07:09.976Z,6.60
2023-03-29T03:09:41.237Z,6.59
2023-03-29T03:12:08.493Z,6.62
2023-03-29T03:14:38.053Z,6.62
2023-03-29T03:17:04.861Z,6.66
2023-03-29T03:19:33.859Z,6.63
2023-03-29T03:22:05.912Z,6.59
2023-03-29T03:24:35.501Z,6.63
2023-03-29T03:27:02.124Z,6.64
2023-03-29T03:29:31.248Z,6.63
2023-03-29T03:31:57.789Z,6.63
2023-03-29T03:34:26.599Z,6.64
2023-03-29T03:36:55.453Z,6.63
2023-03-29T03:39:24.562Z,6.67
2023-03-29T03:41:53.542Z,6.66
2023-03-29T03:44:22.539Z,6.66
2023-03-29T03:46:49.172Z,6.73
2023-03-29T03:49:16.588Z,6.71
2023-03-29T03:51:45.591Z,6.70
2023-03-29T03:54:17.217Z,6.71
2023-03-29T03:56:46.097Z,6.71
2023-03-29T03:59:12.668Z,6.72
2023-03-29T04:01:46.764Z,6.70
2023-03-29T04:04:16.558Z,6.71
2023-03-29T04:06:44.168Z,6.74
2023-03-29T04:09:15.517Z,6.77
2023-03-29T04:11:42.163Z,6.75
2023-03-29T04:14:09.448Z,6.79
2023-03-29T04:16:36.847Z,6.82
2023-03-29T04:19:05.734Z,6.80
2023-03-29T04:21:33.911Z,6.84
2023-03-29T04:24:00.579Z,6.95
2023-03-29T04:26:30.364Z,6.93
2023-03-29T04:28:59.403Z,6.96
2023-03-29T04:31:28.452Z,6.95
2023-03-29T04:34:00.332Z,6.99
2023-03-29T04:36:27.096Z,7.08
2023-03-29T04:38:56.274Z,7.15
2023-03-29T04:41:23.789Z,7.04
2023-03-29T04:43:50.568Z,7.11
2023-03-29T04:46:19.354Z,7.17
2023-03-29T04:48:50.707Z,7.13
2023-03-29T04:51:22.113Z,7.14
2023-03-29T04:53:50.906Z,7.19
2023-03-29T04:56:17.610Z,7.18
2023-03-29T04:58:44.619Z,7.16
2023-03-29T05:01:11.396Z,7.14
2023-03-29T05:03:38.054Z,7.14
2023-03-29T05:06:12.641Z,7.11
2023-03-29T05:08:40.577Z,7.20
2023-03-29T05:11:08.998Z,7.19
2023-03-29T05:13:36.198Z,7.20
2023-03-29T05:16:07.964Z,7.21
2023-03-29T05:18:34.691Z,7.22
2023-03-29T05:21:01.707Z,7.23
2023-03-29T05:23:28.940Z,7.26
2023-03-29T05:25:55.544Z,7.35
2023-03-29T05:28:22.452Z,7.28
2023-03-29T05:31:00.100Z,7.33
2023-03-29T05:33:30.835Z,7.38
2023-03-29T05:36:01.915Z,7.42
2023-03-29T05:38:29.764Z,7.44
2023-03-29T05:41:02.348Z,7.37
2023-03-29T05:43:29.470Z,7.33
2023-03-29T05:45:56.767Z,7.32
2023-03-29T05:48:26.998Z,7.33
2023-03-29T05:50:57.857Z,7.31
2023-03-29T05:53:27.155Z,7.41
2023-03-29T05:55:54.207Z,7.38
2023-03-29T05:58:23.405Z,7.39
2023-03-29T06:00:50.150Z,7.42
2023-03-29T06:03:22.123Z,7.46
2023-03-29T06:06:02.472Z,7.48
2023-03-29T06:08:29.478Z,7.58
2023-03-29T06:11:04.918Z,7.56
2023-03-29T06:13:34.759Z,7.58
2023-03-29T06:16:01.521Z,7.63
2023-03-29T06:18:28.166Z,7.66
2023-03-29T06:20:54.774Z,7.65
2023-03-29T06:23:23.129Z,7.70
2023-03-29T06:25:51.546Z,7.75
2023-03-29T06:28:19.300Z,7.77
2023-03-29T06:30:49.738Z,7.81
2023-03-29T06:33:22.465Z,7.81
2023-03-29T06:35:53.645Z,7.79
2023-03-29T06:38:23.243Z,7.80
2023-03-29T06:40:49.940Z,7.83
2023-03-29T06:43:18.777Z,7.85
2023-03-29T06:45:45.360Z,7.87
2023-03-29T06:48:12.305Z,7.93
2023-03-29T06:50:38.949Z,7.94
2023-03-29T06:53:07.608Z,7.98
2023-03-29T06:55:34.527Z,8.01
2023-03-29T06:58:04.249Z,8.07
2023-03-29T07:00:35.832Z,8.16
2023-03-29T07:03:06.759Z,8.26
2023-03-29T07:05:41.014Z,8.38
2023-03-29T07:08:14.049Z,8.43
2023-03-29T07:10:47.521Z,8.41
2023-03-29T07:13:15.609Z,8.53
2023-03-29T07:15:45.845Z,8.65
2023-03-29T07:18:15.494Z,8.84
2023-03-29T07:20:44.682Z,8.99
2023-03-29T07:23:13.531Z,8.99
2023-03-29T07:25:42.446Z,9.02
2023-03-29T07:28:11.452Z,9.15
2023-03-29T07:30:40.642Z,9.20
2023-03-29T07:33:07.208Z,9.24
2023-03-29T07:35:33.926Z,9.27
2023-03-29T07:38:00.552Z,9.32
2023-03-29T07:40:27.273Z,9.31
2023-03-29T07:42:56.812Z,9.36
2023-03-29T07:45:28.176Z,9.37
2023-03-29T07:47:57.676Z,9.28
2023-03-29T07:50:27.541Z,9.30
2023-03-29T07:52:54.478Z,9.29
2023-03-29T07:55:23.670Z,9.31
2023-03-29T07:57:50.318Z,9.27
2023-03-29T08:00:18.955Z,9.32
2023-03-29T08:02:47.898Z,9.41
2023-03-29T08:05:26.122Z,9.43
2023-03-29T08:08:00.919Z,9.53
2023-03-29T08:10:34.267Z,9.53
2023-03-29T08:13:04.016Z,9.58
2023-03-29T08:15:33.774Z,9.51
2023-03-29T08:18:00.396Z,9.53
2023-03-29T08:20:27.544Z,9.61
2023-03-29T08:22:57.172Z,9.70
2023-03-29T08:25:23.771Z,9.88
2023-03-29T08:27:50.382Z,9.97
2023-03-29T08:30:17.372Z,10.08
2023-03-29T08:32:44.860Z,10.09
2023-03-29T08:35:15.413Z,10.21
2023-03-29T08:37:42.198Z,10.18
2023-03-29T08:40:17.720Z,10.23
2023-03-29T08:42:53.526Z,10.34
2023-03-29T08:45:26.005Z,10.49
2023-03-29T08:48:08.416Z,10.51
2023-03-29T08:50:48.065Z,10.54
2023-03-29T08:53:28.220Z,10.63
2023-03-29T08:55:59.802Z,10.66
2023-03-29T08:58:31.535Z,10.77
2023-03-29T09:01:04.310Z,10.79
2023-03-29T09:03:40.020Z,10.87
2023-03-29T09:06:11.133Z,10.95
2023-03-29T09:08:46.368Z,10.98
2023-03-29T09:11:28.842Z,11.06
2023-03-29T09:14:07.555Z,11.12
2023-03-29T09:17:17.519Z,11.21
2023-03-29T09:20:21.792Z,11.24
2023-03-29T09:23:28.494Z,11.26
2023-03-29T09:26:03.894Z,11.38
2023-03-29T09:28:37.531Z,11.32
2023-03-29T09:31:13.768Z,11.31
2023-03-29T09:33:45.059Z,11.32
2023-03-29T09:36:25.714Z,11.39
2023-03-29T09:38:55.911Z,11.57
2023-03-29T09:41:38.846Z,11.85
2023-03-29T09:44:30.111Z,12.03
2023-03-29T09:47:09.919Z,11.95
2023-03-29T09:49:42.493Z,12.00
2023-03-29T09:52:13.764Z,12.02
2023-03-29T09:54:40.833Z,11.94
2023-03-29T09:57:12.168Z,11.96
2023-03-29T09:59:39.562Z,12.11
2023-03-29T10:02:09.416Z,12.41
2023-03-29T10:04:42.958Z,12.54
2023-03-29T10:07:18.128Z,12.66
2023-03-29T10:09:46.419Z,12.33
2023-03-29T10:12:13.958Z,12.28
2023-03-29T10:14:53.861Z,12.10
2023-03-29T10:17:34.205Z,12.11
2023-03-29T10:20:08.826Z,12.05
2023-03-29T10:22:40.816Z,12.02
2023-03-29T10:25:15.310Z,12.16
2023-03-29T10:27:43.933Z,12.27
2023-03-29T10:30:27.154Z,12.43
2023-03-29T10:32:59.848Z,12.37
2023-03-29T10:35:41.939Z,12.48
2023-03-29T10:38:15.151Z,12.62
2023-03-29T10:40:47.296Z,13.04
2023-03-29T10:43:17.017Z,13.33
2023-03-29T10:45:48.189Z,13.65
2023-03-29T10:48:20.261Z,14.21
2023-03-29T10:50:53.260Z,14.08
2023-03-29T10:53:26.983Z,14.25
2023-03-29T10:56:32.060Z,14.12
2023-03-29T10:59:28.424Z,14.20
2023-03-29T11:02:13.363Z,14.74
2023-03-29T11:05:09.229Z,14.50
2023-03-29T11:07:58.441Z,14.58
2023-03-29T11:10:30.886Z,14.66
2023-03-29T11:13:22.125Z,14.73
2023-03-29T11:16:00.871Z,14.49
2023-03-29T11:18:45.850Z,14.57
2023-03-29T11:21:24.525Z,14.94
2023-03-29T11:24:30.719Z,15.29
2023-03-29T11:27:16.029Z,15.52
2023-03-29T11:30:02.404Z,16.09
2023-03-29T11:32:31.584Z,16.23
2023-03-29T11:35:03.873Z,16.57
2023-03-29T11:37:48.747Z,16.45
2023-03-29T11:40:49.065Z,16.35
2023-03-29T11:43:21.720Z,15.99
2023-03-29T11:46:26.351Z,15.79
2023-03-29T11:48:57.982Z,16.28
2023-03-29T11:52:03.129Z,16.38
2023-03-29T11:54:45.465Z,16.46
2023-03-29T11:57:25.093Z,16.69
2023-03-29T12:00:05.966Z,16.60
2023-03-29T12:02:49.684Z,17.39
2023-03-29T12:05:22.287Z,17.54
2023-03-29T12:07:53.857Z,17.59
2023-03-29T12:10:24.056Z,17.44
2023-03-29T12:13:14.343Z,16.82
2023-03-29T12:15:48.280Z,17.37
2023-03-29T12:18:17.690Z,17.31
2023-03-29T12:20:48.544Z,17.44
2023-03-29T12:23:16.243Z,17.50
2023-03-29T12:26:02.468Z,17.71
2023-03-29T12:29:08.320Z,17.70
2023-03-29T12:31:53.187Z,17.45
2023-03-29T12:34:36.230Z,17.69
2023-03-29T12:37:08.134Z,17.56
2023-03-29T12:39:41.452Z,17.49
2023-03-29T12:42:21.033Z,17.59
2023-03-29T12:44:58.713Z,17.49
2023-03-29T12:47:33.946Z,17.45
2023-03-29T12:50:04.719Z,17.35
2023-03-29T12:52:41.547Z,16.99
2023-03-29T12:55:49.372Z,17.07
2023-03-29T12:58:24.926Z,17.02
2023-03-29T13:01:23.686Z,16.91
2023-03-29T13:03:55.754Z,16.78
2023-03-29T13:06:54.210Z,16.77
2023-03-29T13:09:30.047Z,16.66
2023-03-29T13:12:11.724Z,16.74
2023-03-29T13:14:43.166Z,16.77
2023-03-29T13:17:27.301Z,16.77
2023-03-29T13:20:33.333Z,16.54
2023-03-29T13:23:29.734Z,16.33
2023-03-29T13:26:21.541Z,16.43
2023-03-29T13:29:20.327Z,16.64
2023-03-29T13:32:27.650Z,16.62
2023-03-29T13:35:15.694Z,16.63
2023-03-29T13:38:05.389Z,16.37
2023-03-29T13:40:42.132Z,16.40
2023-03-29T13:43:22.691Z,16.51
2023-03-29T13:45:58.529Z,16.46
2023-03-29T13:48:33.715Z,16.55
2023-03-29T13:51:18.695Z,16.70
2023-03-29T13:54:00.718Z,16.84
2023-03-29T13:56:34.580Z,16.99
2023-03-29T13:59:17.856Z,17.00
2023-03-29T14:01:57.919Z,17.08
2023-03-29T14:04:30.417Z,17.16
2023-03-29T14:07:00.502Z,17.10
2023-03-29T14:09:36.165Z,17.18
2023-03-29T14:12:05.265Z,17.03
2023-03-29T14:14:35.174Z,17.24
2023-03-29T14:17:02.846Z,17.06
2023-03-29T14:19:32.552Z,17.16
2023-03-29T14:22:03.546Z,17.48
2023-03-29T14:24:49.299Z,17.61
2023-03-29T14:27:16.701Z,17.53
2023-03-29T14:29:47.476Z,17.47
2023-03-29T14:32:22.426Z,17.37
2023-03-29T14:34:53.068Z,17.72
2023-03-29T14:37:28.877Z,17.97
2023-03-29T14:39:59.677Z,18.19
2023-03-29T14:42:29.118Z,18.05
2023-03-29T14:45:06.424Z,17.92
2023-03-29T14:47:34.052Z,17.90
2023-03-29T14:50:06.180Z,17.74
2023-03-29T14:52:34.591Z,17.72
2023-03-29T14:55:02.310Z,17.64
2023-03-29T14:57:34.456Z,17.54
2023-03-29T15:00:17.338Z,17.54
2023-03-29T15:03:17.723Z,17.51
2023-03-29T15:05:52.001Z,17.55
2023-03-29T15:08:32.373Z,17.49
2023-03-29T15:11:02.868Z,17.37
2023-03-29T15:13:31.890Z,17.46
2023-03-29T15:16:05.175Z,17.31
2023-03-29T15:18:41.955Z,17.36
2023-03-29T15:21:10.733Z,17.24
2023-03-29T15:23:47.993Z,17.17
2023-03-29T15:26:14.596Z,17.15
2023-03-29T15:28:55.731Z,17.02
2023-03-29T15:31:33.146Z,17.01
2023-03-29T15:34:09.509Z,16.87
2023-03-29T15:36:42.293Z,16.92
2023-03-29T15:39:20.317Z,16.71
2023-03-29T15:41:49.689Z,16.77
2023-03-29T15:44:17.622Z,16.63
2023-03-29T15:46:46.673Z,16.57
2023-03-29T15:49:14.087Z,16.58
2023-03-29T15:51:46.112Z,16.64
2023-03-29T15:54:12.657Z,16.63
2023-03-29T15:56:48.486Z,16.51
2023-03-29T15:59:18.076Z,16.51
2023-03-29T16:01:47.955Z,16.35
2023-03-29T16:04:19.525Z,16.41
2023-03-29T16:06:52.810Z,16.40
2023-03-29T16:09:23.322Z,16.38
2023-03-29T16:11:52.136Z,16.27
2023-03-29T16:14:27.661Z,16.32
2023-03-29T16:16:58.269Z,16.34
2023-03-29T16:19:31.375Z,16.22
2023-03-29T16:22:02.264Z,16.18
2023-03-29T16:24:32.061Z,16.09
2023-03-29T16:26:59.291Z,16.08
2023-03-29T16:29:28.333Z,16.13
2023-03-29T16:31:58.133Z,16.04
2023-03-29T16:34:27.163Z,15.99
2023-03-29T16:36:53.921Z,15.99
2023-03-29T16:39:20.860Z,15.93
2023-03-29T16:41:49.026Z,15.78
2023-03-29T16:44:19.582Z,15.88
2023-03-29T16:46:48.379Z,15.86
2023-03-29T16:49:19.417Z,15.83
2023-03-29T16:51:47.201Z,15.85
2023-03-29T16:54:15.367Z,15.80
2023-03-29T16:56:42.012Z,15.70
2023-03-29T16:59:12.012Z,15.73
2023-03-29T17:01:38.715Z,15.65
2023-03-29T17:04:05.516Z,15.65
2023-03-29T17:06:36.965Z,15.56
2023-03-29T17:09:07.388Z,15.36
2023-03-29T17:11:36.494Z,15.35
2023-03-29T17:14:03.291Z,15.21
2023-03-29T17:16:33.072Z,15.25
2023-03-29T17:19:01.935Z,15.24
2023-03-29T17:21:29.628Z,15.23
2023-03-29T17:23:56.437Z,15.10
2023-03-29T17:26:26.055Z,15.07
2023-03-29T17:28:55.131Z,14.99
2023-03-29T17:31:24.018Z,14.99
2023-03-29T17:33:52.797Z,14.88
2023-03-29T17:36:23.850Z,14.77
2023-03-29T17:38:54.753Z,14.78
2023-03-29T17:41:21.546Z,14.73
2023-03-29T17:43:51.037Z,14.64
2023-03-29T17:46:22.689Z,14.59
2023-03-29T17:48:51.710Z,14.53
2023-03-29T17:51:23.628Z,14.53
2023-03-29T17:53:52.414Z,14.51
2023-03-29T17:56:22.833Z,14.45
2023-03-29T17:58:50.994Z,14.39
2023-03-29T18:01:20.427Z,14.36
2023-03-29T18:03:48.517Z,14.38
2023-03-29T18:06:18.187Z,14.34
2023-03-29T18:08:45.386Z,14.32
2023-03-29T18:11:17.293Z,14.30
2023-03-29T18:13:48.868Z,14.27
2023-03-29T18:16:15.850Z,14.23
2023-03-29T18:18:43.624Z,14.14
2023-03-29T18:21:10.870Z,14.10
2023-03-29T18:23:43.086Z,14.09
2023-03-29T18:26:12.786Z,14.02
2023-03-29T18:28:43.935Z,13.97
2023-03-29T18:31:10.589Z,13.91
2023-03-29T18:33:41.709Z,13.93
2023-03-29T18:36:12.652Z,13.65
2023-03-29T18:38:40.653Z,13.29
2023-03-29T18:41:12.183Z,13.52
2023-03-29T18:43:40.197Z,13.50
2023-03-29T18:46:08.034Z,13.48
2023-03-29T18:48:42.279Z,13.46
2023-03-29T18:51:12.678Z,13.26
2023-03-29T18:53:41.686Z,13.16
2023-03-29T18:56:08.605Z,13.02
2023-03-29T18:58:40.038Z,12.98
2023-03-29T19:01:06.798Z,12.94
2023-03-29T19:03:34.653Z,13.01
2023-03-29T19:06:02.400Z,12.90
2023-03-29T19:08:32.964Z,12.86
2023-03-29T19:11:07.472Z,12.87
2023-03-29T19:13:34.538Z,12.86
2023-03-29T19:16:01.317Z,12.84
2023-03-29T19:18:28.369Z,12.84
2023-03-29T19:20:55.045Z,12.90
2023-03-29T19:23:23.124Z,12.86
2023-03-29T19:26:00.041Z,12.82
2023-03-29T19:28:36.597Z,12.74
2023-03-29T19:31:04.363Z,12.68
2023-03-29T19:33:34.283Z,12.65
2023-03-29T19:36:01.643Z,12.62
2023-03-29T19:38:28.624Z,12.61
2023-03-29T19:40:55.276Z,12.63
2023-03-29T19:43:27.100Z,12.62
2023-03-29T19:45:53.742Z,12.64
2023-03-29T19:48:22.966Z,12.68
2023-03-29T19:50:50.437Z,12.64
2023-03-29T19:53:17.214Z,12.64
2023-03-29T19:55:45.401Z,12.63
2023-03-29T19:58:12.595Z,12.62
2023-03-29T20:00:41.823Z,12.65
2023-03-29T20:03:13.998Z,12.65
2023-03-29T20:05:41.159Z,12.67
2023-03-29T20:08:12.558Z,12.72
2023-03-29T20:10:43.762Z,12.67
2023-03-29T20:13:10.646Z,12.67
2023-03-29T20:15:40.213Z,12.65
2023-03-29T20:18:06.946Z,12.63
2023-03-29T20:20:35.755Z,12.63
2023-03-29T20:23:05.226Z,12.62
2023-03-29T20:25:36.241Z,12.59
2023-03-29T20:28:07.377Z,12.60
2023-03-29T20:30:37.322Z,12.62
2023-03-29T20:33:07.466Z,12.58
2023-03-29T20:35:34.120Z,12.56
2023-03-29T20:38:00.720Z,12.62
2023-03-29T20:40:31.569Z,12.56
2023-03-29T20:42:58.198Z,12.54
2023-03-29T20:45:25.690Z,12.53
2023-03-29T20:48:02.063Z,12.48
2023-03-29T20:50:29.516Z,12.48
2023-03-29T20:53:03.793Z,12.47
2023-03-29T20:55:33.183Z,12.45
2023-03-29T20:58:02.917Z,12.50
2023-03-29T21:00:31.889Z,12.48
2023-03-29T21:03:01.348Z,12.46
2023-03-29T21:05:29.961Z,12.47
2023-03-29T21:07:57.037Z,12.54
2023-03-29T21:10:30.380Z,12.56
2023-03-29T21:13:02.569Z,12.50
2023-03-29T21:15:33.681Z,12.48
2023-03-29T21:18:00.252Z,12.57
2023-03-29T21:20:29.396Z,12.51
2023-03-29T21:22:58.991Z,12.52
2023-03-29T21:25:27.766Z,12.49
2023-03-29T21:27:56.797Z,12.50
2023-03-29T21:30:23.447Z,12.46
2023-03-29T21:32:52.320Z,12.46
2023-03-29T21:35:18.933Z,12.47
2023-03-29T21:37:45.505Z,12.45
2023-03-29T21:40:12.749Z,12.48
2023-03-29T21:42:41.766Z,12.44
2023-03-29T21:45:11.608Z,12.47
2023-03-29T21:47:38.248Z,12.47
2023-03-29T21:50:08.064Z,12.44
2023-03-29T21:52:34.905Z,12.42
2023-03-29T21:55:01.442Z,12.43
2023-03-29T21:57:30.342Z,12.46
2023-03-29T21:59:57.065Z,12.45
2023-03-29T22:02:25.932Z,12.43
2023-03-29T22:04:52.583Z,12.44
2023-03-29T22:07:22.809Z,12.43
2023-03-29T22:09:54.772Z,12.43
2023-03-29T22:12:26.994Z,12.44
2023-03-29T22:14:53.562Z,12.42
2023-03-29T22:17:20.093Z,12.41
2023-03-29T22:19:48.933Z,12.39
2023-03-29T22:22:15.595Z,12.37
2023-03-29T22:24:42.494Z,12.33
2023-03-29T22:27:13.438Z,12.30
2023-03-29T22:29:40.010Z,12.28
2023-03-29T22:32:07.007Z,12.27
2023-03-29T22:34:33.957Z,12.26
2023-03-29T22:37:03.106Z,12.35
2023-03-29T22:39:29.965Z,12.45
2023-03-29T22:42:01.276Z,12.39
2023-03-29T22:44:30.134Z,12.37
2023-03-29T22:46:56.725Z,12.35
2023-03-29T22:49:25.770Z,12.38
2023-03-29T22:51:54.584Z,12.33
2023-03-29T22:54:21.162Z,12.31
2023-03-29T22:56:47.902Z,12.33
2023-03-29T22:59:15.768Z,12.30
2023-03-29T23:01:42.443Z,12.23
2023-03-29T23:04:12.222Z,12.17
2023-03-29T23:06:44.042Z,12.13
2023-03-29T23:09:14.545Z,12.11
2023-03-29T23:11:42.924Z,12.12
2023-03-29T23:14:09.561Z,12.12
2023-03-29T23:16:36.969Z,12.16
2023-03-29T23:19:06.770Z,12.13
2023-03-29T23:21:37.054Z,12.10
2023-03-29T23:24:03.909Z,12.08
2023-03-29T23:26:35.703Z,12.08
2023-03-29T23:29:03.338Z,12.10
2023-03-29T23:31:33.779Z,12.13
2023-03-29T23:34:00.386Z,12.18
2023-03-29T23:36:31.476Z,12.16
2023-03-29T23:38:59.586Z,12.07
2023-03-29T23:41:30.934Z,12.08
2023-03-29T23:44:00.528Z,12.02
2023-03-29T23:46:27.110Z,11.99
2023-03-29T23:48:53.699Z,11.96
2023-03-29T23:51:28.078Z,11.92
2023-03-29T23:53:55.836Z,11.90
2023-03-29T23:56:23.062Z,11.84
2023-03-29T23:58:50.028Z,11.82
